sensor_id;sensor_type;location;lat;lon;timestamp;P1;durP1;ratioP1;P2;durP2;ratioP2
43996;SDS011;34318;45.818;15.964;2023-05-29T00:00:39;5.32;;;4.70;;
43996;SDS011;34318;45.818;15.964;2023-05-29T00:03:06;5.22;;;4.72;;
43996;SDS011;34318;45.818;15.964;2023-05-29T00:05:35;5.80;;;4.97;;
43996;SDS011;34318;45.818;15.964;2023-05-29T00:08:02;6.03;;;4.90;;
43996;SDS011;34318;45.818;15.964;2023-05-29T00:10:30;5.88;;;4.90;;
43996;SDS011;34318;45.818;15.964;2023-05-29T00:12:57;5.50;;;4.40;;
43996;SDS011;34318;45.818;15.964;2023-05-29T00:15:27;5.45;;;4.75;;
43996;SDS011;34318;45.818;15.964;2023-05-29T00:17:56;5.15;;;4.55;;
43996;SDS011;34318;45.818;15.964;2023-05-29T00:20:23;5.05;;;4.60;;
43996;SDS011;34318;45.818;15.964;2023-05-29T00:22:51;5.13;;;4.63;;
43996;SDS011;34318;45.818;15.964;2023-05-29T00:25:18;5.70;;;5.20;;
43996;SDS011;34318;45.818;15.964;2023-05-29T00:27:46;5.53;;;4.88;;
43996;SDS011;34318;45.818;15.964;2023-05-29T00:30:13;4.68;;;4.25;;
43996;SDS011;34318;45.818;15.964;2023-05-29T00:32:40;5.43;;;4.78;;
43996;SDS011;34318;45.818;15.964;2023-05-29T00:35:08;5.50;;;5.00;;
43996;SDS011;34318;45.818;15.964;2023-05-29T00:37:35;9.65;;;5.03;;
43996;SDS011;34318;45.818;15.964;2023-05-29T00:40:03;4.68;;;4.20;;
43996;SDS011;34318;45.818;15.964;2023-05-29T00:42:30;6.20;;;4.72;;
43996;SDS011;34318;45.818;15.964;2023-05-29T00:44:57;5.47;;;4.88;;
43996;SDS011;34318;45.818;15.964;2023-05-29T00:47:25;5.80;;;5.13;;
43996;SDS011;34318;45.818;15.964;2023-05-29T00:49:53;5.28;;;4.70;;
43996;SDS011;34318;45.818;15.964;2023-05-29T00:52:20;5.40;;;4.90;;
43996;SDS011;34318;45.818;15.964;2023-05-29T00:54:47;5.40;;;4.55;;
43996;SDS011;34318;45.818;15.964;2023-05-29T00:57:15;5.43;;;4.93;;
43996;SDS011;34318;45.818;15.964;2023-05-29T00:59:44;5.30;;;4.70;;
43996;SDS011;34318;45.818;15.964;2023-05-29T01:02:12;4.88;;;4.47;;
43996;SDS011;34318;45.818;15.964;2023-05-29T01:04:39;5.63;;;4.95;;
43996;SDS011;34318;45.818;15.964;2023-05-29T01:07:06;6.15;;;4.90;;
43996;SDS011;34318;45.818;15.964;2023-05-29T01:09:35;5.32;;;4.43;;
43996;SDS011;34318;45.818;15.964;2023-05-29T01:17:32;5.82;;;5.32;;
43996;SDS011;34318;45.818;15.964;2023-05-29T01:25:21;5.22;;;4.72;;
43996;SDS011;34318;45.818;15.964;2023-05-29T01:27:50;5.60;;;4.72;;
43996;SDS011;34318;45.818;15.964;2023-05-29T01:30:19;5.80;;;5.20;;
43996;SDS011;34318;45.818;15.964;2023-05-29T01:32:47;5.78;;;4.40;;
43996;SDS011;34318;45.818;15.964;2023-05-29T01:35:15;5.07;;;4.57;;
43996;SDS011;34318;45.818;15.964;2023-05-29T01:37:42;5.50;;;4.90;;
43996;SDS011;34318;45.818;15.964;2023-05-29T01:40:10;5.85;;;4.90;;
43996;SDS011;34318;45.818;15.964;2023-05-29T01:42:37;7.30;;;5.32;;
43996;SDS011;34318;45.818;15.964;2023-05-29T01:45:04;5.65;;;5.13;;
43996;SDS011;34318;45.818;15.964;2023-05-29T01:47:33;6.03;;;5.07;;
43996;SDS011;34318;45.818;15.964;2023-05-29T01:50:00;5.85;;;4.82;;
43996;SDS011;34318;45.818;15.964;2023-05-29T01:52:29;5.82;;;4.75;;
43996;SDS011;34318;45.818;15.964;2023-05-29T01:54:56;5.70;;;5.13;;
43996;SDS011;34318;45.818;15.964;2023-05-29T01:57:24;4.82;;;4.43;;
43996;SDS011;34318;45.818;15.964;2023-05-29T01:59:52;5.22;;;4.72;;
43996;SDS011;34318;45.818;15.964;2023-05-29T02:02:21;5.10;;;4.32;;
43996;SDS011;34318;45.818;15.964;2023-05-29T02:04:52;5.28;;;4.78;;
43996;SDS011;34318;45.818;15.964;2023-05-29T02:07:19;6.47;;;5.10;;
43996;SDS011;34318;45.818;15.964;2023-05-29T02:09:47;5.20;;;4.70;;
43996;SDS011;34318;45.818;15.964;2023-05-29T02:12:14;5.43;;;4.93;;
43996;SDS011;34318;45.818;15.964;2023-05-29T02:14:41;5.70;;;4.80;;
43996;SDS011;34318;45.818;15.964;2023-05-29T02:17:09;6.57;;;4.60;;
43996;SDS011;34318;45.818;15.964;2023-05-29T02:19:36;5.75;;;5.03;;
43996;SDS011;34318;45.818;15.964;2023-05-29T02:22:03;6.30;;;5.35;;
43996;SDS011;34318;45.818;15.964;2023-05-29T02:24:31;5.53;;;5.00;;
43996;SDS011;34318;45.818;15.964;2023-05-29T02:26:59;5.97;;;5.13;;
43996;SDS011;34318;45.818;15.964;2023-05-29T02:29:27;5.25;;;4.57;;
43996;SDS011;34318;45.818;15.964;2023-05-29T02:31:54;5.90;;;5.18;;
43996;SDS011;34318;45.818;15.964;2023-05-29T02:34:21;6.28;;;5.22;;
43996;SDS011;34318;45.818;15.964;2023-05-29T02:36:49;6.47;;;5.10;;
43996;SDS011;34318;45.818;15.964;2023-05-29T02:39:18;5.30;;;4.80;;
43996;SDS011;34318;45.818;15.964;2023-05-29T02:41:45;5.65;;;5.15;;
43996;SDS011;34318;45.818;15.964;2023-05-29T02:44:13;6.07;;;5.47;;
43996;SDS011;34318;45.818;15.964;2023-05-29T02:46:40;5.88;;;5.35;;
43996;SDS011;34318;45.818;15.964;2023-05-29T02:49:08;6.72;;;5.20;;
43996;SDS011;34318;45.818;15.964;2023-05-29T02:51:35;5.40;;;4.90;;
43996;SDS011;34318;45.818;15.964;2023-05-29T02:54:03;6.03;;;4.75;;
43996;SDS011;34318;45.818;15.964;2023-05-29T02:56:30;7.10;;;5.38;;
43996;SDS011;34318;45.818;15.964;2023-05-29T02:58:58;5.78;;;5.15;;
43996;SDS011;34318;45.818;15.964;2023-05-29T03:01:26;5.97;;;5.20;;
43996;SDS011;34318;45.818;15.964;2023-05-29T03:03:53;8.90;;;5.45;;
43996;SDS011;34318;45.818;15.964;2023-05-29T03:06:22;5.85;;;4.78;;
43996;SDS011;34318;45.818;15.964;2023-05-29T03:08:49;6.05;;;5.25;;
43996;SDS011;34318;45.818;15.964;2023-05-29T03:11:17;6.15;;;5.13;;
43996;SDS011;34318;45.818;15.964;2023-05-29T03:13:44;6.85;;;5.70;;
43996;SDS011;34318;45.818;15.964;2023-05-29T03:16:13;8.02;;;5.57;;
43996;SDS011;34318;45.818;15.964;2023-05-29T03:18:40;6.80;;;5.63;;
43996;SDS011;34318;45.818;15.964;2023-05-29T03:21:07;6.20;;;5.40;;
43996;SDS011;34318;45.818;15.964;2023-05-29T03:23:35;6.47;;;5.35;;
43996;SDS011;34318;45.818;15.964;2023-05-29T03:26:02;5.93;;;4.85;;
43996;SDS011;34318;45.818;15.964;2023-05-29T03:28:30;6.63;;;5.07;;
43996;SDS011;34318;45.818;15.964;2023-05-29T03:30:57;7.28;;;5.47;;
43996;SDS011;34318;45.818;15.964;2023-05-29T03:33:24;6.43;;;5.18;;
43996;SDS011;34318;45.818;15.964;2023-05-29T03:35:51;6.47;;;5.85;;
43996;SDS011;34318;45.818;15.964;2023-05-29T03:38:19;6.72;;;5.40;;
43996;SDS011;34318;45.818;15.964;2023-05-29T03:40:46;5.72;;;5.03;;
43996;SDS011;34318;45.818;15.964;2023-05-29T03:43:13;5.70;;;5.15;;
43996;SDS011;34318;45.818;15.964;2023-05-29T03:45:40;6.45;;;5.85;;
43996;SDS011;34318;45.818;15.964;2023-05-29T03:48:07;10.02;;;5.78;;
43996;SDS011;34318;45.818;15.964;2023-05-29T03:50:35;7.45;;;5.03;;
43996;SDS011;34318;45.818;15.964;2023-05-29T03:53:02;6.25;;;5.47;;
43996;SDS011;34318;45.818;15.964;2023-05-29T03:55:29;7.13;;;5.68;;
43996;SDS011;34318;45.818;15.964;2023-05-29T03:57:58;6.63;;;5.50;;
43996;SDS011;34318;45.818;15.964;2023-05-29T04:00:25;7.05;;;5.13;;
43996;SDS011;34318;45.818;15.964;2023-05-29T04:02:54;5.85;;;4.97;;
43996;SDS011;34318;45.818;15.964;2023-05-29T04:05:21;6.80;;;5.45;;
43996;SDS011;34318;45.818;15.964;2023-05-29T04:07:49;5.60;;;4.90;;
43996;SDS011;34318;45.818;15.964;2023-05-29T04:10:23;6.28;;;5.68;;
43996;SDS011;34318;45.818;15.964;2023-05-29T04:12:51;8.15;;;5.75;;
43996;SDS011;34318;45.818;15.964;2023-05-29T04:15:18;7.28;;;5.72;;
43996;SDS011;34318;45.818;15.964;2023-05-29T04:17:45;7.32;;;5.28;;
43996;SDS011;34318;45.818;15.964;2023-05-29T04:20:13;7.00;;;5.65;;
43996;SDS011;34318;45.818;15.964;2023-05-29T04:22:40;7.68;;;5.50;;
43996;SDS011;34318;45.818;15.964;2023-05-29T04:25:07;6.40;;;5.55;;
43996;SDS011;34318;45.818;15.964;2023-05-29T04:27:34;8.02;;;5.45;;
43996;SDS011;34318;45.818;15.964;2023-05-29T04:30:05;5.55;;;5.05;;
43996;SDS011;34318;45.818;15.964;2023-05-29T04:32:33;5.75;;;5.18;;
43996;SDS011;34318;45.818;15.964;2023-05-29T04:35:00;5.60;;;5.10;;
43996;SDS011;34318;45.818;15.964;2023-05-29T04:37:29;6.22;;;5.63;;
43996;SDS011;34318;45.818;15.964;2023-05-29T04:39:58;5.95;;;5.35;;
43996;SDS011;34318;45.818;15.964;2023-05-29T04:42:26;5.95;;;5.30;;
43996;SDS011;34318;45.818;15.964;2023-05-29T04:44:53;5.95;;;5.43;;
43996;SDS011;34318;45.818;15.964;2023-05-29T04:47:20;5.97;;;5.38;;
43996;SDS011;34318;45.818;15.964;2023-05-29T04:49:48;6.32;;;5.10;;
43996;SDS011;34318;45.818;15.964;2023-05-29T04:52:16;6.22;;;5.63;;
43996;SDS011;34318;45.818;15.964;2023-05-29T04:54:43;6.25;;;5.65;;
43996;SDS011;34318;45.818;15.964;2023-05-29T04:57:10;7.00;;;6.00;;
43996;SDS011;34318;45.818;15.964;2023-05-29T04:59:38;7.07;;;5.65;;
43996;SDS011;34318;45.818;15.964;2023-05-29T05:02:05;6.45;;;5.72;;
43996;SDS011;34318;45.818;15.964;2023-05-29T05:04:32;6.18;;;5.25;;
43996;SDS011;34318;45.818;15.964;2023-05-29T05:07:00;6.57;;;5.40;;
43996;SDS011;34318;45.818;15.964;2023-05-29T05:09:28;7.55;;;5.22;;
43996;SDS011;34318;45.818;15.964;2023-05-29T05:11:55;6.45;;;5.57;;
43996;SDS011;34318;45.818;15.964;2023-05-29T05:14:22;9.45;;;5.70;;
43996;SDS011;34318;45.818;15.964;2023-05-29T05:16:50;5.90;;;5.18;;
43996;SDS011;34318;45.818;15.964;2023-05-29T05:19:17;6.22;;;5.20;;
43996;SDS011;34318;45.818;15.964;2023-05-29T05:21:45;5.90;;;5.28;;
43996;SDS011;34318;45.818;15.964;2023-05-29T05:24:12;7.47;;;5.45;;
43996;SDS011;34318;45.818;15.964;2023-05-29T05:26:39;6.13;;;5.53;;
43996;SDS011;34318;45.818;15.964;2023-05-29T05:29:07;6.68;;;5.70;;
43996;SDS011;34318;45.818;15.964;2023-05-29T05:31:34;6.32;;;5.50;;
43996;SDS011;34318;45.818;15.964;2023-05-29T05:34:01;5.90;;;5.30;;
43996;SDS011;34318;45.818;15.964;2023-05-29T05:36:28;6.38;;;5.63;;
43996;SDS011;34318;45.818;15.964;2023-05-29T05:38:57;5.75;;;5.25;;
43996;SDS011;34318;45.818;15.964;2023-05-29T05:41:24;9.15;;;6.05;;
43996;SDS011;34318;45.818;15.964;2023-05-29T05:43:51;5.78;;;5.18;;
43996;SDS011;34318;45.818;15.964;2023-05-29T05:46:18;6.15;;;5.55;;
43996;SDS011;34318;45.818;15.964;2023-05-29T05:48:46;7.78;;;5.78;;
43996;SDS011;34318;45.818;15.964;2023-05-29T05:51:13;6.63;;;6.03;;
43996;SDS011;34318;45.818;15.964;2023-05-29T05:53:40;6.72;;;5.60;;
43996;SDS011;34318;45.818;15.964;2023-05-29T05:56:08;8.98;;;6.35;;
43996;SDS011;34318;45.818;15.964;2023-05-29T05:58:35;7.35;;;6.07;;
43996;SDS011;34318;45.818;15.964;2023-05-29T06:01:02;6.97;;;6.25;;
43996;SDS011;34318;45.818;15.964;2023-05-29T06:03:29;8.95;;;6.25;;
43996;SDS011;34318;45.818;15.964;2023-05-29T06:05:59;6.70;;;6.10;;
43996;SDS011;34318;45.818;15.964;2023-05-29T06:08:27;7.22;;;6.53;;
43996;SDS011;34318;45.818;15.964;2023-05-29T06:10:54;7.47;;;6.05;;
43996;SDS011;34318;45.818;15.964;2023-05-29T06:13:22;6.72;;;6.13;;
43996;SDS011;34318;45.818;15.964;2023-05-29T06:15:49;6.70;;;5.72;;
43996;SDS011;34318;45.818;15.964;2023-05-29T06:18:16;7.07;;;5.45;;
43996;SDS011;34318;45.818;15.964;2023-05-29T06:20:43;6.22;;;5.43;;
43996;SDS011;34318;45.818;15.964;2023-05-29T06:23:11;6.25;;;5.65;;
43996;SDS011;34318;45.818;15.964;2023-05-29T06:25:39;6.70;;;6.10;;
43996;SDS011;34318;45.818;15.964;2023-05-29T06:28:07;6.25;;;5.65;;
43996;SDS011;34318;45.818;15.964;2023-05-29T06:30:34;8.75;;;5.57;;
43996;SDS011;34318;45.818;15.964;2023-05-29T06:33:01;6.18;;;5.53;;
43996;SDS011;34318;45.818;15.964;2023-05-29T06:35:29;6.40;;;5.80;;
43996;SDS011;34318;45.818;15.964;2023-05-29T06:37:56;6.40;;;5.70;;
43996;SDS011;34318;45.818;15.964;2023-05-29T06:40:23;5.97;;;5.40;;
43996;SDS011;34318;45.818;15.964;2023-05-29T06:42:50;5.50;;;5.00;;
43996;SDS011;34318;45.818;15.964;2023-05-29T06:45:17;6.80;;;5.30;;
43996;SDS011;34318;45.818;15.964;2023-05-29T06:47:45;5.28;;;4.85;;
43996;SDS011;34318;45.818;15.964;2023-05-29T06:50:13;7.45;;;6.40;;
43996;SDS011;34318;45.818;15.964;2023-05-29T06:52:40;10.38;;;6.30;;
43996;SDS011;34318;45.818;15.964;2023-05-29T06:55:07;6.82;;;5.95;;
43996;SDS011;34318;45.818;15.964;2023-05-29T06:57:35;6.40;;;5.50;;
43996;SDS011;34318;45.818;15.964;2023-05-29T07:00:03;7.93;;;5.55;;
43996;SDS011;34318;45.818;15.964;2023-05-29T07:02:32;7.18;;;6.35;;
43996;SDS011;34318;45.818;15.964;2023-05-29T07:04:59;7.25;;;6.38;;
43996;SDS011;34318;45.818;15.964;2023-05-29T07:07:26;6.95;;;6.35;;
43996;SDS011;34318;45.818;15.964;2023-05-29T07:09:53;14.55;;;8.57;;
43996;SDS011;34318;45.818;15.964;2023-05-29T07:12:23;12.07;;;8.95;;
43996;SDS011;34318;45.818;15.964;2023-05-29T07:14:51;13.35;;;9.55;;
43996;SDS011;34318;45.818;15.964;2023-05-29T07:17:18;10.80;;;7.70;;
43996;SDS011;34318;45.818;15.964;2023-05-29T07:19:46;10.60;;;8.35;;
43996;SDS011;34318;45.818;15.964;2023-05-29T07:22:15;8.98;;;7.38;;
43996;SDS011;34318;45.818;15.964;2023-05-29T07:24:43;9.15;;;7.20;;
43996;SDS011;34318;45.818;15.964;2023-05-29T07:27:10;9.15;;;7.65;;
43996;SDS011;34318;45.818;15.964;2023-05-29T07:29:37;8.63;;;7.32;;
43996;SDS011;34318;45.818;15.964;2023-05-29T07:32:04;9.10;;;6.97;;
43996;SDS011;34318;45.818;15.964;2023-05-29T07:34:32;10.02;;;7.57;;
43996;SDS011;34318;45.818;15.964;2023-05-29T07:37:00;11.23;;;7.63;;
43996;SDS011;34318;45.818;15.964;2023-05-29T07:39:28;11.18;;;7.22;;
43996;SDS011;34318;45.818;15.964;2023-05-29T07:41:55;11.52;;;8.13;;
43996;SDS011;34318;45.818;15.964;2023-05-29T07:44:23;7.65;;;6.50;;
43996;SDS011;34318;45.818;15.964;2023-05-29T07:46:50;14.20;;;11.75;;
43996;SDS011;34318;45.818;15.964;2023-05-29T07:49:19;15.02;;;13.45;;
43996;SDS011;34318;45.818;15.964;2023-05-29T07:51:46;14.02;;;12.63;;
43996;SDS011;34318;45.818;15.964;2023-05-29T07:54:13;11.73;;;10.55;;
43996;SDS011;34318;45.818;15.964;2023-05-29T07:56:44;12.13;;;10.93;;
43996;SDS011;34318;45.818;15.964;2023-05-29T07:59:12;11.30;;;10.20;;
43996;SDS011;34318;45.818;15.964;2023-05-29T08:01:39;14.80;;;13.20;;
43996;SDS011;34318;45.818;15.964;2023-05-29T08:04:06;19.08;;;17.35;;
43996;SDS011;34318;45.818;15.964;2023-05-29T08:06:34;17.23;;;15.43;;
43996;SDS011;34318;45.818;15.964;2023-05-29T08:09:02;14.73;;;13.15;;
43996;SDS011;34318;45.818;15.964;2023-05-29T08:11:31;14.05;;;12.15;;
43996;SDS011;34318;45.818;15.964;2023-05-29T08:13:58;15.18;;;13.68;;
43996;SDS011;34318;45.818;15.964;2023-05-29T08:16:25;15.73;;;12.50;;
43996;SDS011;34318;45.818;15.964;2023-05-29T08:18:54;14.73;;;12.40;;
43996;SDS011;34318;45.818;15.964;2023-05-29T08:21:22;15.93;;;13.82;;
43996;SDS011;34318;45.818;15.964;2023-05-29T08:23:49;14.45;;;12.05;;
43996;SDS011;34318;45.818;15.964;2023-05-29T08:26:16;15.38;;;12.98;;
43996;SDS011;34318;45.818;15.964;2023-05-29T08:28:43;20.48;;;12.35;;
43996;SDS011;34318;45.818;15.964;2023-05-29T08:31:11;15.55;;;11.65;;
43996;SDS011;34318;45.818;15.964;2023-05-29T08:33:38;15.68;;;12.23;;
43996;SDS011;34318;45.818;15.964;2023-05-29T08:36:06;13.48;;;11.13;;
43996;SDS011;34318;45.818;15.964;2023-05-29T08:38:33;15.40;;;10.90;;
43996;SDS011;34318;45.818;15.964;2023-05-29T08:41:00;13.98;;;11.88;;
43996;SDS011;34318;45.818;15.964;2023-05-29T08:43:31;15.40;;;11.85;;
43996;SDS011;34318;45.818;15.964;2023-05-29T08:46:02;19.13;;;13.27;;
43996;SDS011;34318;45.818;15.964;2023-05-29T08:48:30;27.33;;;12.93;;
43996;SDS011;34318;45.818;15.964;2023-05-29T08:50:58;20.05;;;13.60;;
43996;SDS011;34318;45.818;15.964;2023-05-29T08:53:28;21.77;;;14.00;;
43996;SDS011;34318;45.818;15.964;2023-05-29T08:55:57;23.13;;;13.07;;
43996;SDS011;34318;45.818;15.964;2023-05-29T08:58:24;18.73;;;12.85;;
43996;SDS011;34318;45.818;15.964;2023-05-29T09:00:53;17.35;;;12.02;;
43996;SDS011;34318;45.818;15.964;2023-05-29T09:03:21;25.05;;;12.68;;
43996;SDS011;34318;45.818;15.964;2023-05-29T09:05:49;25.95;;;14.13;;
43996;SDS011;34318;45.818;15.964;2023-05-29T09:08:17;16.20;;;12.07;;
43996;SDS011;34318;45.818;15.964;2023-05-29T09:10:44;16.90;;;12.98;;
43996;SDS011;34318;45.818;15.964;2023-05-29T09:13:12;15.15;;;12.13;;
43996;SDS011;34318;45.818;15.964;2023-05-29T09:15:41;20.27;;;13.23;;
43996;SDS011;34318;45.818;15.964;2023-05-29T09:18:12;19.65;;;12.73;;
43996;SDS011;34318;45.818;15.964;2023-05-29T09:20:39;15.82;;;12.23;;
43996;SDS011;34318;45.818;15.964;2023-05-29T09:23:07;21.52;;;12.45;;
43996;SDS011;34318;45.818;15.964;2023-05-29T09:25:39;23.00;;;12.57;;
43996;SDS011;34318;45.818;15.964;2023-05-29T09:28:08;17.75;;;13.05;;
43996;SDS011;34318;45.818;15.964;2023-05-29T09:30:45;20.10;;;12.85;;
43996;SDS011;34318;45.818;15.964;2023-05-29T09:33:16;18.45;;;11.63;;
43996;SDS011;34318;45.818;15.964;2023-05-29T09:35:44;14.88;;;11.48;;
43996;SDS011;34318;45.818;15.964;2023-05-29T09:38:12;15.10;;;11.48;;
43996;SDS011;34318;45.818;15.964;2023-05-29T09:40:59;18.30;;;11.55;;
43996;SDS011;34318;45.818;15.964;2023-05-29T09:43:31;20.40;;;10.70;;
43996;SDS011;34318;45.818;15.964;2023-05-29T09:46:00;14.48;;;11.50;;
43996;SDS011;34318;45.818;15.964;2023-05-29T09:48:29;16.17;;;10.68;;
43996;SDS011;34318;45.818;15.964;2023-05-29T09:50:56;16.63;;;11.45;;
43996;SDS011;34318;45.818;15.964;2023-05-29T09:53:24;12.30;;;10.27;;
43996;SDS011;34318;45.818;15.964;2023-05-29T09:55:53;17.40;;;10.55;;
43996;SDS011;34318;45.818;15.964;2023-05-29T09:58:21;14.07;;;11.30;;
43996;SDS011;34318;45.818;15.964;2023-05-29T10:00:49;13.48;;;12.07;;
43996;SDS011;34318;45.818;15.964;2023-05-29T10:03:17;17.30;;;12.30;;
43996;SDS011;34318;45.818;15.964;2023-05-29T10:05:50;16.90;;;11.55;;
43996;SDS011;34318;45.818;15.964;2023-05-29T10:08:18;14.57;;;11.68;;
43996;SDS011;34318;45.818;15.964;2023-05-29T10:10:48;13.55;;;11.90;;
43996;SDS011;34318;45.818;15.964;2023-05-29T10:13:16;18.35;;;13.13;;
43996;SDS011;34318;45.818;15.964;2023-05-29T10:15:44;16.98;;;12.05;;
43996;SDS011;34318;45.818;15.964;2023-05-29T10:18:13;15.65;;;12.35;;
43996;SDS011;34318;45.818;15.964;2023-05-29T10:20:46;20.13;;;13.25;;
43996;SDS011;34318;45.818;15.964;2023-05-29T10:23:14;14.60;;;11.20;;
43996;SDS011;34318;45.818;15.964;2023-05-29T10:25:41;13.98;;;11.73;;
43996;SDS011;34318;45.818;15.964;2023-05-29T10:28:11;15.98;;;11.85;;
43996;SDS011;34318;45.818;15.964;2023-05-29T10:30:43;17.58;;;10.63;;
43996;SDS011;34318;45.818;15.964;2023-05-29T10:33:30;20.70;;;12.10;;
43996;SDS011;34318;45.818;15.964;2023-05-29T10:36:03;15.50;;;11.05;;
43996;SDS011;34318;45.818;15.964;2023-05-29T10:38:31;16.95;;;10.85;;
43996;SDS011;34318;45.818;15.964;2023-05-29T10:43:44;13.13;;;11.15;;
43996;SDS011;34318;45.818;15.964;2023-05-29T10:46:11;14.27;;;12.15;;
43996;SDS011;34318;45.818;15.964;2023-05-29T10:48:39;13.05;;;11.13;;
43996;SDS011;34318;45.818;15.964;2023-05-29T10:51:07;16.10;;;10.18;;
43996;SDS011;34318;45.818;15.964;2023-05-29T10:53:35;13.77;;;11.15;;
43996;SDS011;34318;45.818;15.964;2023-05-29T10:56:14;13.50;;;11.43;;
43996;SDS011;34318;45.818;15.964;2023-05-29T10:58:42;17.67;;;12.10;;
43996;SDS011;34318;45.818;15.964;2023-05-29T11:01:10;13.43;;;11.98;;
43996;SDS011;34318;45.818;15.964;2023-05-29T11:03:37;13.90;;;12.07;;
43996;SDS011;34318;45.818;15.964;2023-05-29T11:06:05;13.20;;;10.60;;
43996;SDS011;34318;45.818;15.964;2023-05-29T11:08:46;12.55;;;10.68;;
43996;SDS011;34318;45.818;15.964;2023-05-29T11:11:48;11.30;;;10.20;;
43996;SDS011;34318;45.818;15.964;2023-05-29T11:14:08;12.80;;;11.50;;
43996;SDS011;34318;45.818;15.964;2023-05-29T11:16:36;11.48;;;10.35;;
43996;SDS011;34318;45.818;15.964;2023-05-29T11:19:07;12.23;;;10.88;;
43996;SDS011;34318;45.818;15.964;2023-05-29T11:21:59;13.02;;;10.93;;
43996;SDS011;34318;45.818;15.964;2023-05-29T11:24:27;11.77;;;10.40;;
43996;SDS011;34318;45.818;15.964;2023-05-29T11:26:56;10.70;;;9.63;;
43996;SDS011;34318;45.818;15.964;2023-05-29T11:29:32;12.88;;;11.57;;
43996;SDS011;34318;45.818;15.964;2023-05-29T11:32:03;20.35;;;13.85;;
43996;SDS011;34318;45.818;15.964;2023-05-29T11:34:32;21.75;;;16.08;;
43996;SDS011;34318;45.818;15.964;2023-05-29T11:37:00;20.85;;;15.02;;
43996;SDS011;34318;45.818;15.964;2023-05-29T11:39:27;23.08;;;14.85;;
43996;SDS011;34318;45.818;15.964;2023-05-29T11:41:55;16.58;;;14.63;;
43996;SDS011;34318;45.818;15.964;2023-05-29T11:44:25;17.30;;;15.50;;
43996;SDS011;34318;45.818;15.964;2023-05-29T11:47:03;19.50;;;15.60;;
43996;SDS011;34318;45.818;15.964;2023-05-29T11:49:31;22.23;;;15.52;;
43996;SDS011;34318;45.818;15.964;2023-05-29T11:54:41;15.43;;;11.85;;
43996;SDS011;34318;45.818;15.964;2023-05-29T11:57:17;13.30;;;11.20;;
43996;SDS011;34318;45.818;15.964;2023-05-29T11:59:45;14.10;;;11.50;;
43996;SDS011;34318;45.818;15.964;2023-05-29T12:02:13;11.90;;;10.15;;
43996;SDS011;34318;45.818;15.964;2023-05-29T12:04:40;11.50;;;10.27;;
43996;SDS011;34318;45.818;15.964;2023-05-29T12:07:17;13.80;;;10.88;;
43996;SDS011;34318;45.818;15.964;2023-05-29T12:09:44;12.55;;;11.07;;
43996;SDS011;34318;45.818;15.964;2023-05-29T12:12:13;19.20;;;16.05;;
43996;SDS011;34318;45.818;15.964;2023-05-29T12:14:41;22.17;;;16.10;;
43996;SDS011;34318;45.818;15.964;2023-05-29T12:17:08;20.60;;;14.43;;
43996;SDS011;34318;45.818;15.964;2023-05-29T12:19:35;15.98;;;14.20;;
43996;SDS011;34318;45.818;15.964;2023-05-29T12:22:03;16.83;;;14.05;;
43996;SDS011;34318;45.818;15.964;2023-05-29T12:24:30;17.25;;;12.18;;
43996;SDS011;34318;45.818;15.964;2023-05-29T12:27:08;16.58;;;11.25;;
43996;SDS011;34318;45.818;15.964;2023-05-29T12:29:35;11.60;;;10.50;;
43996;SDS011;34318;45.818;15.964;2023-05-29T12:32:03;10.88;;;9.85;;
43996;SDS011;34318;45.818;15.964;2023-05-29T12:34:33;12.85;;;9.43;;
43996;SDS011;34318;45.818;15.964;2023-05-29T12:37:07;11.15;;;9.20;;
43996;SDS011;34318;45.818;15.964;2023-05-29T12:39:38;10.48;;;9.48;;
43996;SDS011;34318;45.818;15.964;2023-05-29T12:42:06;10.30;;;8.02;;
43996;SDS011;34318;45.818;15.964;2023-05-29T12:44:33;9.63;;;8.63;;
43996;SDS011;34318;45.818;15.964;2023-05-29T12:47:01;9.75;;;8.75;;
43996;SDS011;34318;45.818;15.964;2023-05-29T12:49:28;11.75;;;9.05;;
43996;SDS011;34318;45.818;15.964;2023-05-29T12:51:56;10.30;;;8.07;;
43996;SDS011;34318;45.818;15.964;2023-05-29T12:56:59;9.90;;;8.85;;
43996;SDS011;34318;45.818;15.964;2023-05-29T12:59:27;10.48;;;8.02;;
43996;SDS011;34318;45.818;15.964;2023-05-29T13:01:54;10.95;;;8.27;;
43996;SDS011;34318;45.818;15.964;2023-05-29T13:04:21;12.68;;;10.57;;
43996;SDS011;34318;45.818;15.964;2023-05-29T13:06:49;17.23;;;15.63;;
43996;SDS011;34318;45.818;15.964;2023-05-29T13:09:16;21.55;;;19.65;;
43996;SDS011;34318;45.818;15.964;2023-05-29T13:11:43;23.40;;;21.17;;
43996;SDS011;34318;45.818;15.964;2023-05-29T13:14:11;22.15;;;20.05;;
43996;SDS011;34318;45.818;15.964;2023-05-29T13:16:38;22.52;;;20.52;;
43996;SDS011;34318;45.818;15.964;2023-05-29T13:19:05;19.52;;;17.63;;
43996;SDS011;34318;45.818;15.964;2023-05-29T13:21:33;17.48;;;15.93;;
43996;SDS011;34318;45.818;15.964;2023-05-29T13:24:01;18.65;;;16.80;;
43996;SDS011;34318;45.818;15.964;2023-05-29T13:26:28;16.70;;;15.05;;
43996;SDS011;34318;45.818;15.964;2023-05-29T13:28:55;16.95;;;15.43;;
43996;SDS011;34318;45.818;15.964;2023-05-29T13:31:23;16.88;;;13.90;;
43996;SDS011;34318;45.818;15.964;2023-05-29T13:33:50;15.73;;;14.32;;
43996;SDS011;34318;45.818;15.964;2023-05-29T13:36:17;15.43;;;14.02;;
43996;SDS011;34318;45.818;15.964;2023-05-29T13:38:44;16.38;;;14.93;;
43996;SDS011;34318;45.818;15.964;2023-05-29T13:41:12;15.95;;;14.35;;
43996;SDS011;34318;45.818;15.964;2023-05-29T13:43:39;16.15;;;14.65;;
43996;SDS011;34318;45.818;15.964;2023-05-29T13:46:10;16.42;;;14.93;;
43996;SDS011;34318;45.818;15.964;2023-05-29T13:48:38;17.90;;;15.85;;
43996;SDS011;34318;45.818;15.964;2023-05-29T13:51:05;15.60;;;14.15;;
43996;SDS011;34318;45.818;15.964;2023-05-29T13:53:33;16.45;;;14.75;;
43996;SDS011;34318;45.818;15.964;2023-05-29T13:56:00;14.82;;;13.38;;
43996;SDS011;34318;45.818;15.964;2023-05-29T13:58:27;14.90;;;13.60;;
43996;SDS011;34318;45.818;15.964;2023-05-29T14:00:54;15.18;;;13.68;;
43996;SDS011;34318;45.818;15.964;2023-05-29T14:03:22;14.18;;;12.57;;
43996;SDS011;34318;45.818;15.964;2023-05-29T14:05:51;14.95;;;13.55;;
43996;SDS011;34318;45.818;15.964;2023-05-29T14:08:20;14.30;;;12.90;;
43996;SDS011;34318;45.818;15.964;2023-05-29T14:10:47;12.85;;;11.57;;
43996;SDS011;34318;45.818;15.964;2023-05-29T14:13:14;13.02;;;11.68;;
43996;SDS011;34318;45.818;15.964;2023-05-29T14:15:41;12.63;;;11.43;;
43996;SDS011;34318;45.818;15.964;2023-05-29T14:18:09;13.60;;;12.23;;
43996;SDS011;34318;45.818;15.964;2023-05-29T14:20:36;12.27;;;11.07;;
43996;SDS011;34318;45.818;15.964;2023-05-29T14:23:04;11.43;;;10.43;;
43996;SDS011;34318;45.818;15.964;2023-05-29T14:25:31;11.63;;;10.63;;
43996;SDS011;34318;45.818;15.964;2023-05-29T14:27:58;10.88;;;9.80;;
43996;SDS011;34318;45.818;15.964;2023-05-29T14:30:26;10.25;;;9.25;;
43996;SDS011;34318;45.818;15.964;2023-05-29T14:32:53;10.00;;;9.13;;
43996;SDS011;34318;45.818;15.964;2023-05-29T14:35:22;11.07;;;9.98;;
43996;SDS011;34318;45.818;15.964;2023-05-29T14:37:49;10.38;;;9.43;;
43996;SDS011;34318;45.818;15.964;2023-05-29T14:40:17;9.60;;;8.70;;
43996;SDS011;34318;45.818;15.964;2023-05-29T14:42:44;8.98;;;8.07;;
43996;SDS011;34318;45.818;15.964;2023-05-29T14:45:14;10.00;;;9.07;;
43996;SDS011;34318;45.818;15.964;2023-05-29T14:47:42;9.27;;;8.18;;